Brighton, Vermont
Current Conditions -  °F | °C
As of 5:55 AM on Wednesday 22 Oct 2014 (Local Time) from KCDA Reporting Station
Light Rain Light Rain  
Wind Chill: 42°   Ceiling: 3000
Heat Index: 46°   Visibility: 10mi
Dew Point: 42°   Wind: 8mph
Humidity: 83%   Direction: 10°N
Pressure: 30.14"   Gusts: NA
Location:  44.7725°N, 71.8101°W
Report Text: KCDA 220955Z AUTO 01007KT 10SM -RA SCT023 BKN030 OVC050 08/05 A3014 RMK AO2 T00800053
Loading
Personal Weather Stations






























Interactive Weather Map
Tropical Storm Tracking
New forecast layout! Learn more

10-Day Weather Forecast

Advertisements
Track Severe Weather on mobile